sensor_id;sensor_type;location;lat;lon;timestamp;P1;durP1;ratioP1;P2;durP2;ratioP2
28760;SDS011;15917;50.014;8.352;2022-08-18T00:02:19;12.40;;;9.70;;
28760;SDS011;15917;50.014;8.352;2022-08-18T00:04:48;14.73;;;9.35;;
28760;SDS011;15917;50.014;8.352;2022-08-18T00:07:16;19.60;;;9.30;;
28760;SDS011;15917;50.014;8.352;2022-08-18T00:09:45;18.40;;;11.27;;
28760;SDS011;15917;50.014;8.352;2022-08-18T00:12:16;14.38;;;10.32;;
28760;SDS011;15917;50.014;8.352;2022-08-18T00:14:45;15.05;;;9.88;;
28760;SDS011;15917;50.014;8.352;2022-08-18T00:17:12;17.88;;;9.90;;
28760;SDS011;15917;50.014;8.352;2022-08-18T00:19:38;18.15;;;10.30;;
28760;SDS011;15917;50.014;8.352;2022-08-18T00:22:03;14.68;;;10.35;;
28760;SDS011;15917;50.014;8.352;2022-08-18T00:24:29;14.73;;;10.13;;
28760;SDS011;15917;50.014;8.352;2022-08-18T00:26:55;14.80;;;9.82;;
28760;SDS011;15917;50.014;8.352;2022-08-18T00:29:22;14.70;;;9.35;;
28760;SDS011;15917;50.014;8.352;2022-08-18T00:31:49;13.73;;;9.53;;
28760;SDS011;15917;50.014;8.352;2022-08-18T00:34:14;16.10;;;9.57;;
28760;SDS011;15917;50.014;8.352;2022-08-18T00:36:40;12.73;;;8.93;;
28760;SDS011;15917;50.014;8.352;2022-08-18T00:39:06;14.30;;;9.82;;
28760;SDS011;15917;50.014;8.352;2022-08-18T00:41:32;13.27;;;8.68;;
28760;SDS011;15917;50.014;8.352;2022-08-18T00:43:57;15.95;;;9.60;;
28760;SDS011;15917;50.014;8.352;2022-08-18T00:46:27;14.52;;;9.65;;
28760;SDS011;15917;50.014;8.352;2022-08-18T00:48:57;18.75;;;9.95;;
28760;SDS011;15917;50.014;8.352;2022-08-18T00:54:00;14.32;;;10.02;;
28760;SDS011;15917;50.014;8.352;2022-08-18T00:56:38;17.60;;;9.27;;
28760;SDS011;15917;50.014;8.352;2022-08-18T01:02:09;12.48;;;8.85;;
28760;SDS011;15917;50.014;8.352;2022-08-18T01:07:17;11.68;;;9.02;;
28760;SDS011;15917;50.014;8.352;2022-08-18T01:09:49;13.90;;;9.27;;
28760;SDS011;15917;50.014;8.352;2022-08-18T01:12:16;13.00;;;9.02;;
28760;SDS011;15917;50.014;8.352;2022-08-18T01:14:42;13.88;;;9.15;;
28760;SDS011;15917;50.014;8.352;2022-08-18T01:17:08;12.45;;;8.63;;
28760;SDS011;15917;50.014;8.352;2022-08-18T01:19:53;11.45;;;8.55;;
28760;SDS011;15917;50.014;8.352;2022-08-18T01:22:46;12.38;;;9.07;;
28760;SDS011;15917;50.014;8.352;2022-08-18T01:25:13;12.88;;;8.63;;
28760;SDS011;15917;50.014;8.352;2022-08-18T01:28:02;13.35;;;8.18;;
28760;SDS011;15917;50.014;8.352;2022-08-18T01:30:29;16.77;;;7.97;;
28760;SDS011;15917;50.014;8.352;2022-08-18T01:32:56;14.05;;;9.15;;
28760;SDS011;15917;50.014;8.352;2022-08-18T01:35:23;14.40;;;8.40;;
28760;SDS011;15917;50.014;8.352;2022-08-18T01:37:51;13.50;;;8.73;;
28760;SDS011;15917;50.014;8.352;2022-08-18T01:40:18;11.48;;;8.18;;
28760;SDS011;15917;50.014;8.352;2022-08-18T01:42:47;9.30;;;7.15;;
28760;SDS011;15917;50.014;8.352;2022-08-18T01:45:14;9.98;;;7.35;;
28760;SDS011;15917;50.014;8.352;2022-08-18T01:50:07;10.70;;;6.68;;
28760;SDS011;15917;50.014;8.352;2022-08-18T01:52:35;11.43;;;7.28;;
28760;SDS011;15917;50.014;8.352;2022-08-18T01:55:01;11.18;;;7.40;;
28760;SDS011;15917;50.014;8.352;2022-08-18T01:57:27;8.85;;;6.85;;
28760;SDS011;15917;50.014;8.352;2022-08-18T01:59:53;9.70;;;7.10;;
28760;SDS011;15917;50.014;8.352;2022-08-18T02:02:22;11.02;;;7.22;;
28760;SDS011;15917;50.014;8.352;2022-08-18T02:04:54;8.93;;;6.32;;
28760;SDS011;15917;50.014;8.352;2022-08-18T02:07:26;12.13;;;7.70;;
28760;SDS011;15917;50.014;8.352;2022-08-18T02:09:52;11.27;;;7.65;;
28760;SDS011;15917;50.014;8.352;2022-08-18T02:12:17;9.55;;;7.50;;
28760;SDS011;15917;50.014;8.352;2022-08-18T02:14:44;13.68;;;8.93;;
28760;SDS011;15917;50.014;8.352;2022-08-18T02:17:10;13.63;;;9.00;;
28760;SDS011;15917;50.014;8.352;2022-08-18T02:19:43;11.13;;;8.38;;
28760;SDS011;15917;50.014;8.352;2022-08-18T02:22:11;17.20;;;8.27;;
28760;SDS011;15917;50.014;8.352;2022-08-18T02:24:40;11.93;;;8.48;;
28760;SDS011;15917;50.014;8.352;2022-08-18T02:27:06;12.00;;;8.15;;
28760;SDS011;15917;50.014;8.352;2022-08-18T02:29:33;10.35;;;7.43;;
28760;SDS011;15917;50.014;8.352;2022-08-18T02:31:59;8.18;;;6.90;;
28760;SDS011;15917;50.014;8.352;2022-08-18T02:34:24;9.05;;;6.25;;
28760;SDS011;15917;50.014;8.352;2022-08-18T02:36:50;10.77;;;7.10;;
28760;SDS011;15917;50.014;8.352;2022-08-18T02:39:16;18.55;;;9.25;;
28760;SDS011;15917;50.014;8.352;2022-08-18T02:41:42;13.60;;;9.43;;
28760;SDS011;15917;50.014;8.352;2022-08-18T02:44:08;16.80;;;9.80;;
28760;SDS011;15917;50.014;8.352;2022-08-18T02:46:35;11.80;;;9.20;;
28760;SDS011;15917;50.014;8.352;2022-08-18T02:49:01;18.05;;;8.77;;
28760;SDS011;15917;50.014;8.352;2022-08-18T02:51:28;16.33;;;10.20;;
28760;SDS011;15917;50.014;8.352;2022-08-18T02:53:54;14.45;;;9.88;;
28760;SDS011;15917;50.014;8.352;2022-08-18T02:56:23;20.35;;;9.70;;
28760;SDS011;15917;50.014;8.352;2022-08-18T02:58:57;13.27;;;8.95;;
28760;SDS011;15917;50.014;8.352;2022-08-18T03:01:27;12.70;;;9.23;;
28760;SDS011;15917;50.014;8.352;2022-08-18T03:03:56;13.82;;;8.80;;
28760;SDS011;15917;50.014;8.352;2022-08-18T03:06:23;12.43;;;8.48;;
28760;SDS011;15917;50.014;8.352;2022-08-18T03:08:50;16.23;;;10.20;;
28760;SDS011;15917;50.014;8.352;2022-08-18T03:11:19;14.27;;;8.95;;
28760;SDS011;15917;50.014;8.352;2022-08-18T03:13:47;12.38;;;8.48;;
28760;SDS011;15917;50.014;8.352;2022-08-18T03:16:12;13.05;;;8.98;;
28760;SDS011;15917;50.014;8.352;2022-08-18T03:18:40;18.58;;;8.50;;
28760;SDS011;15917;50.014;8.352;2022-08-18T03:21:14;21.23;;;9.68;;
28760;SDS011;15917;50.014;8.352;2022-08-18T03:23:42;15.43;;;7.70;;
28760;SDS011;15917;50.014;8.352;2022-08-18T03:26:09;11.18;;;8.05;;
28760;SDS011;15917;50.014;8.352;2022-08-18T03:28:38;14.70;;;8.20;;
28760;SDS011;15917;50.014;8.352;2022-08-18T03:33:31;11.63;;;7.82;;
28760;SDS011;15917;50.014;8.352;2022-08-18T03:36:07;13.88;;;7.57;;
28760;SDS011;15917;50.014;8.352;2022-08-18T03:38:36;12.70;;;6.85;;
28760;SDS011;15917;50.014;8.352;2022-08-18T03:41:05;12.63;;;7.60;;
28760;SDS011;15917;50.014;8.352;2022-08-18T03:43:32;18.83;;;7.47;;
28760;SDS011;15917;50.014;8.352;2022-08-18T03:46:02;12.80;;;7.20;;
28760;SDS011;15917;50.014;8.352;2022-08-18T03:48:29;12.73;;;7.07;;
28760;SDS011;15917;50.014;8.352;2022-08-18T03:51:07;11.30;;;7.82;;
28760;SDS011;15917;50.014;8.352;2022-08-18T03:53:34;14.90;;;7.55;;
28760;SDS011;15917;50.014;8.352;2022-08-18T03:56:00;11.73;;;7.57;;
28760;SDS011;15917;50.014;8.352;2022-08-18T03:58:30;14.32;;;7.28;;
28760;SDS011;15917;50.014;8.352;2022-08-18T04:00:55;11.68;;;8.00;;
28760;SDS011;15917;50.014;8.352;2022-08-18T04:03:21;11.63;;;8.32;;
28760;SDS011;15917;50.014;8.352;2022-08-18T04:05:47;15.90;;;8.73;;
28760;SDS011;15917;50.014;8.352;2022-08-18T04:08:12;13.75;;;8.10;;
28760;SDS011;15917;50.014;8.352;2022-08-18T04:10:38;14.43;;;8.63;;
28760;SDS011;15917;50.014;8.352;2022-08-18T04:13:04;17.27;;;9.20;;
28760;SDS011;15917;50.014;8.352;2022-08-18T04:15:30;13.18;;;8.32;;
28760;SDS011;15917;50.014;8.352;2022-08-18T04:18:00;13.02;;;9.32;;
28760;SDS011;15917;50.014;8.352;2022-08-18T04:20:28;17.73;;;10.50;;
28760;SDS011;15917;50.014;8.352;2022-08-18T04:22:56;16.83;;;9.27;;
28760;SDS011;15917;50.014;8.352;2022-08-18T04:25:22;15.35;;;10.00;;
28760;SDS011;15917;50.014;8.352;2022-08-18T04:27:49;16.83;;;10.82;;
28760;SDS011;15917;50.014;8.352;2022-08-18T04:30:15;16.17;;;9.75;;
28760;SDS011;15917;50.014;8.352;2022-08-18T04:32:41;18.70;;;11.25;;
28760;SDS011;15917;50.014;8.352;2022-08-18T04:35:07;14.52;;;10.45;;
28760;SDS011;15917;50.014;8.352;2022-08-18T04:37:35;13.07;;;9.52;;
28760;SDS011;15917;50.014;8.352;2022-08-18T04:40:02;17.13;;;8.32;;
28760;SDS011;15917;50.014;8.352;2022-08-18T04:42:29;14.93;;;10.40;;
28760;SDS011;15917;50.014;8.352;2022-08-18T04:44:55;14.10;;;9.85;;
28760;SDS011;15917;50.014;8.352;2022-08-18T04:47:22;14.38;;;9.85;;
28760;SDS011;15917;50.014;8.352;2022-08-18T04:49:47;15.05;;;10.00;;
28760;SDS011;15917;50.014;8.352;2022-08-18T04:52:14;17.08;;;9.88;;
28760;SDS011;15917;50.014;8.352;2022-08-18T04:54:58;13.52;;;9.65;;
28760;SDS011;15917;50.014;8.352;2022-08-18T04:57:25;15.18;;;9.88;;
28760;SDS011;15917;50.014;8.352;2022-08-18T04:59:51;14.90;;;9.75;;
28760;SDS011;15917;50.014;8.352;2022-08-18T05:02:17;14.65;;;10.43;;
28760;SDS011;15917;50.014;8.352;2022-08-18T05:04:44;14.45;;;10.00;;
28760;SDS011;15917;50.014;8.352;2022-08-18T05:07:11;15.63;;;10.13;;
28760;SDS011;15917;50.014;8.352;2022-08-18T05:09:39;18.60;;;10.35;;
28760;SDS011;15917;50.014;8.352;2022-08-18T05:12:08;15.07;;;9.38;;
28760;SDS011;15917;50.014;8.352;2022-08-18T05:14:41;24.98;;;11.30;;
28760;SDS011;15917;50.014;8.352;2022-08-18T05:17:13;23.60;;;10.50;;
28760;SDS011;15917;50.014;8.352;2022-08-18T05:19:40;17.38;;;10.25;;
28760;SDS011;15917;50.014;8.352;2022-08-18T05:22:08;20.27;;;11.40;;
28760;SDS011;15917;50.014;8.352;2022-08-18T05:24:34;18.02;;;11.15;;
28760;SDS011;15917;50.014;8.352;2022-08-18T05:27:01;22.63;;;10.90;;
28760;SDS011;15917;50.014;8.352;2022-08-18T05:29:28;17.27;;;10.27;;
28760;SDS011;15917;50.014;8.352;2022-08-18T05:32:01;16.75;;;10.45;;
28760;SDS011;15917;50.014;8.352;2022-08-18T05:34:30;16.60;;;10.38;;
28760;SDS011;15917;50.014;8.352;2022-08-18T05:37:00;17.05;;;10.45;;
28760;SDS011;15917;50.014;8.352;2022-08-18T05:39:29;16.77;;;9.25;;
28760;SDS011;15917;50.014;8.352;2022-08-18T05:42:07;18.80;;;10.23;;
28760;SDS011;15917;50.014;8.352;2022-08-18T05:44:46;20.85;;;11.77;;
28760;SDS011;15917;50.014;8.352;2022-08-18T05:47:27;22.95;;;12.48;;
28760;SDS011;15917;50.014;8.352;2022-08-18T05:49:55;27.85;;;12.85;;
28760;SDS011;15917;50.014;8.352;2022-08-18T05:52:39;24.10;;;12.10;;
28760;SDS011;15917;50.014;8.352;2022-08-18T05:55:27;25.92;;;11.43;;
28760;SDS011;15917;50.014;8.352;2022-08-18T05:58:22;20.95;;;12.25;;
28760;SDS011;15917;50.014;8.352;2022-08-18T06:00:50;24.63;;;11.45;;
28760;SDS011;15917;50.014;8.352;2022-08-18T06:03:20;20.20;;;11.13;;
28760;SDS011;15917;50.014;8.352;2022-08-18T06:05:59;19.98;;;10.95;;
28760;SDS011;15917;50.014;8.352;2022-08-18T06:08:28;22.38;;;11.38;;
28760;SDS011;15917;50.014;8.352;2022-08-18T06:11:00;18.13;;;11.10;;
28760;SDS011;15917;50.014;8.352;2022-08-18T06:13:26;26.35;;;11.52;;
28760;SDS011;15917;50.014;8.352;2022-08-18T06:16:08;18.55;;;11.75;;
28760;SDS011;15917;50.014;8.352;2022-08-18T06:21:26;18.70;;;11.55;;
28760;SDS011;15917;50.014;8.352;2022-08-18T06:43:44;21.33;;;13.18;;
28760;SDS011;15917;50.014;8.352;2022-08-18T06:46:21;24.35;;;13.73;;
28760;SDS011;15917;50.014;8.352;2022-08-18T06:48:51;26.90;;;13.48;;
28760;SDS011;15917;50.014;8.352;2022-08-18T06:51:21;22.10;;;15.23;;
28760;SDS011;15917;50.014;8.352;2022-08-18T06:54:02;20.15;;;13.35;;
28760;SDS011;15917;50.014;8.352;2022-08-18T06:56:49;19.05;;;13.38;;
28760;SDS011;15917;50.014;8.352;2022-08-18T06:59:24;21.95;;;13.52;;
28760;SDS011;15917;50.014;8.352;2022-08-18T07:01:54;19.00;;;13.45;;
28760;SDS011;15917;50.014;8.352;2022-08-18T07:04:37;25.08;;;13.45;;
28760;SDS011;15917;50.014;8.352;2022-08-18T07:07:23;19.35;;;12.43;;
28760;SDS011;15917;50.014;8.352;2022-08-18T07:09:56;28.33;;;13.70;;
28760;SDS011;15917;50.014;8.352;2022-08-18T07:12:24;18.33;;;13.25;;
28760;SDS011;15917;50.014;8.352;2022-08-18T07:14:56;19.20;;;10.07;;
28760;SDS011;15917;50.014;8.352;2022-08-18T07:17:26;22.83;;;12.02;;
28760;SDS011;15917;50.014;8.352;2022-08-18T07:22:51;16.75;;;11.32;;
28760;SDS011;15917;50.014;8.352;2022-08-18T07:25:24;17.30;;;11.55;;
28760;SDS011;15917;50.014;8.352;2022-08-18T07:27:56;19.90;;;11.48;;
28760;SDS011;15917;50.014;8.352;2022-08-18T07:30:27;22.13;;;11.63;;
28760;SDS011;15917;50.014;8.352;2022-08-18T07:35:32;25.77;;;12.38;;
28760;SDS011;15917;50.014;8.352;2022-08-18T07:38:19;21.77;;;10.45;;
28760;SDS011;15917;50.014;8.352;2022-08-18T07:40:53;20.38;;;10.25;;
28760;SDS011;15917;50.014;8.352;2022-08-18T07:43:36;20.50;;;11.35;;
28760;SDS011;15917;50.014;8.352;2022-08-18T07:46:15;20.38;;;12.25;;
28760;SDS011;15917;50.014;8.352;2022-08-18T07:48:54;18.23;;;12.57;;
28760;SDS011;15917;50.014;8.352;2022-08-18T07:54:07;24.88;;;13.30;;
28760;SDS011;15917;50.014;8.352;2022-08-18T07:57:02;19.13;;;12.57;;
28760;SDS011;15917;50.014;8.352;2022-08-18T08:07:40;21.77;;;14.65;;
28760;SDS011;15917;50.014;8.352;2022-08-18T08:21:19;27.63;;;15.77;;
28760;SDS011;15917;50.014;8.352;2022-08-18T08:26:53;20.50;;;13.13;;
28760;SDS011;15917;50.014;8.352;2022-08-18T08:29:38;17.23;;;11.35;;
28760;SDS011;15917;50.014;8.352;2022-08-18T08:32:30;17.83;;;11.88;;
28760;SDS011;15917;50.014;8.352;2022-08-18T08:35:20;19.33;;;11.20;;
28760;SDS011;15917;50.014;8.352;2022-08-18T08:37:51;15.65;;;9.88;;
28760;SDS011;15917;50.014;8.352;2022-08-18T08:40:31;15.27;;;10.90;;
28760;SDS011;15917;50.014;8.352;2022-08-18T08:43:08;17.85;;;12.32;;
28760;SDS011;15917;50.014;8.352;2022-08-18T08:48:33;14.85;;;9.98;;
28760;SDS011;15917;50.014;8.352;2022-08-18T08:51:10;17.70;;;11.90;;
28760;SDS011;15917;50.014;8.352;2022-08-18T08:53:53;16.00;;;12.25;;
28760;SDS011;15917;50.014;8.352;2022-08-18T08:56:49;23.33;;;11.20;;
28760;SDS011;15917;50.014;8.352;2022-08-18T08:59:17;15.40;;;11.13;;
28760;SDS011;15917;50.014;8.352;2022-08-18T09:09:58;15.23;;;11.55;;
28760;SDS011;15917;50.014;8.352;2022-08-18T09:23:29;16.75;;;11.82;;
28760;SDS011;15917;50.014;8.352;2022-08-18T09:25:58;14.38;;;10.45;;
28760;SDS011;15917;50.014;8.352;2022-08-18T09:29:05;19.13;;;11.90;;
28760;SDS011;15917;50.014;8.352;2022-08-18T09:40:45;17.70;;;12.50;;
28760;SDS011;15917;50.014;8.352;2022-08-18T09:43:35;21.10;;;13.07;;
28760;SDS011;15917;50.014;8.352;2022-08-18T09:46:05;18.48;;;11.65;;
28760;SDS011;15917;50.014;8.352;2022-08-18T09:54:06;19.88;;;13.18;;
28760;SDS011;15917;50.014;8.352;2022-08-18T10:01:58;18.10;;;11.55;;
28760;SDS011;15917;50.014;8.352;2022-08-18T10:07:12;18.10;;;11.50;;
28760;SDS011;15917;50.014;8.352;2022-08-18T10:28:54;16.52;;;12.15;;
28760;SDS011;15917;50.014;8.352;2022-08-18T10:31:21;23.67;;;12.00;;
28760;SDS011;15917;50.014;8.352;2022-08-18T10:34:00;24.55;;;12.15;;
28760;SDS011;15917;50.014;8.352;2022-08-18T10:39:26;20.05;;;11.73;;
28760;SDS011;15917;50.014;8.352;2022-08-18T10:42:17;19.38;;;13.13;;
28760;SDS011;15917;50.014;8.352;2022-08-18T10:45:09;19.17;;;12.10;;
28760;SDS011;15917;50.014;8.352;2022-08-18T10:47:56;19.00;;;12.30;;
28760;SDS011;15917;50.014;8.352;2022-08-18T10:50:22;18.48;;;11.52;;
28760;SDS011;15917;50.014;8.352;2022-08-18T10:53:07;17.48;;;12.43;;
28760;SDS011;15917;50.014;8.352;2022-08-18T10:58:23;15.05;;;11.60;;
28760;SDS011;15917;50.014;8.352;2022-08-18T11:01:03;15.70;;;12.18;;
28760;SDS011;15917;50.014;8.352;2022-08-18T11:06:15;17.00;;;11.63;;
28760;SDS011;15917;50.014;8.352;2022-08-18T11:08:45;19.88;;;11.32;;
28760;SDS011;15917;50.014;8.352;2022-08-18T11:11:13;15.77;;;10.02;;
28760;SDS011;15917;50.014;8.352;2022-08-18T11:16:37;17.80;;;11.20;;
28760;SDS011;15917;50.014;8.352;2022-08-18T11:19:38;19.05;;;12.98;;
28760;SDS011;15917;50.014;8.352;2022-08-18T11:22:05;16.58;;;11.70;;
28760;SDS011;15917;50.014;8.352;2022-08-18T11:24:52;20.23;;;13.77;;
28760;SDS011;15917;50.014;8.352;2022-08-18T11:29:46;18.25;;;11.77;;
28760;SDS011;15917;50.014;8.352;2022-08-18T11:32:19;18.45;;;11.40;;
28760;SDS011;15917;50.014;8.352;2022-08-18T11:34:58;15.90;;;11.88;;
28760;SDS011;15917;50.014;8.352;2022-08-18T11:40:20;15.23;;;9.80;;
28760;SDS011;15917;50.014;8.352;2022-08-18T11:42:57;17.95;;;11.15;;
28760;SDS011;15917;50.014;8.352;2022-08-18T11:45:26;14.65;;;10.40;;
28760;SDS011;15917;50.014;8.352;2022-08-18T11:48:21;10.68;;;8.65;;
28760;SDS011;15917;50.014;8.352;2022-08-18T11:53:40;16.33;;;10.40;;
28760;SDS011;15917;50.014;8.352;2022-08-18T12:01:10;12.95;;;8.75;;
28760;SDS011;15917;50.014;8.352;2022-08-18T12:06:39;15.38;;;10.13;;
28760;SDS011;15917;50.014;8.352;2022-08-18T12:12:05;14.68;;;9.40;;
28760;SDS011;15917;50.014;8.352;2022-08-18T12:14:51;13.48;;;9.55;;
28760;SDS011;15917;50.014;8.352;2022-08-18T12:17:18;13.32;;;8.85;;
28760;SDS011;15917;50.014;8.352;2022-08-18T12:19:43;10.10;;;8.30;;
28760;SDS011;15917;50.014;8.352;2022-08-18T12:22:17;12.65;;;8.73;;
28760;SDS011;15917;50.014;8.352;2022-08-18T12:24:46;9.73;;;7.72;;
28760;SDS011;15917;50.014;8.352;2022-08-18T12:27:14;18.52;;;8.52;;
28760;SDS011;15917;50.014;8.352;2022-08-18T12:29:41;19.73;;;8.15;;
28760;SDS011;15917;50.014;8.352;2022-08-18T12:32:07;15.93;;;7.80;;
28760;SDS011;15917;50.014;8.352;2022-08-18T12:34:33;14.93;;;10.13;;
28760;SDS011;15917;50.014;8.352;2022-08-18T12:36:58;12.73;;;8.00;;
28760;SDS011;15917;50.014;8.352;2022-08-18T12:39:25;12.05;;;5.88;;
28760;SDS011;15917;50.014;8.352;2022-08-18T12:41:52;12.25;;;6.78;;
28760;SDS011;15917;50.014;8.352;2022-08-18T12:44:19;7.75;;;5.45;;
28760;SDS011;15917;50.014;8.352;2022-08-18T12:46:44;10.02;;;7.13;;
28760;SDS011;15917;50.014;8.352;2022-08-18T12:49:16;9.63;;;6.55;;
28760;SDS011;15917;50.014;8.352;2022-08-18T12:51:43;13.88;;;7.32;;
28760;SDS011;15917;50.014;8.352;2022-08-18T12:54:13;8.57;;;6.55;;
28760;SDS011;15917;50.014;8.352;2022-08-18T12:56:39;10.98;;;7.57;;
28760;SDS011;15917;50.014;8.352;2022-08-18T12:59:07;10.52;;;6.88;;
28760;SDS011;15917;50.014;8.352;2022-08-18T13:01:35;7.93;;;6.85;;
28760;SDS011;15917;50.014;8.352;2022-08-18T13:04:02;13.68;;;6.70;;
28760;SDS011;15917;50.014;8.352;2022-08-18T13:06:28;10.07;;;6.88;;
28760;SDS011;15917;50.014;8.352;2022-08-18T13:08:57;9.52;;;7.03;;
28760;SDS011;15917;50.014;8.352;2022-08-18T13:11:23;12.50;;;7.00;;
28760;SDS011;15917;50.014;8.352;2022-08-18T13:13:49;9.23;;;6.00;;
28760;SDS011;15917;50.014;8.352;2022-08-18T13:16:16;8.40;;;5.32;;
28760;SDS011;15917;50.014;8.352;2022-08-18T13:18:43;6.13;;;4.63;;
28760;SDS011;15917;50.014;8.352;2022-08-18T13:21:10;7.82;;;5.13;;
28760;SDS011;15917;50.014;8.352;2022-08-18T13:23:37;6.70;;;4.93;;
28760;SDS011;15917;50.014;8.352;2022-08-18T13:26:04;7.18;;;5.70;;
28760;SDS011;15917;50.014;8.352;2022-08-18T13:28:31;11.15;;;5.55;;
28760;SDS011;15917;50.014;8.352;2022-08-18T13:30:58;9.32;;;5.03;;
28760;SDS011;15917;50.014;8.352;2022-08-18T13:33:24;8.35;;;5.45;;
28760;SDS011;15917;50.014;8.352;2022-08-18T13:35:50;7.90;;;5.68;;
28760;SDS011;15917;50.014;8.352;2022-08-18T13:38:17;15.80;;;6.50;;
28760;SDS011;15917;50.014;8.352;2022-08-18T13:40:45;22.02;;;5.90;;
28760;SDS011;15917;50.014;8.352;2022-08-18T13:43:12;7.60;;;5.53;;
28760;SDS011;15917;50.014;8.352;2022-08-18T13:48:07;7.30;;;5.47;;
28760;SDS011;15917;50.014;8.352;2022-08-18T13:50:33;10.85;;;5.97;;
28760;SDS011;15917;50.014;8.352;2022-08-18T13:52:59;9.30;;;6.18;;
28760;SDS011;15917;50.014;8.352;2022-08-18T13:55:26;10.87;;;6.50;;
28760;SDS011;15917;50.014;8.352;2022-08-18T13:57:53;8.38;;;5.82;;
28760;SDS011;15917;50.014;8.352;2022-08-18T14:00:19;8.23;;;6.90;;
28760;SDS011;15917;50.014;8.352;2022-08-18T14:02:47;7.88;;;6.13;;
28760;SDS011;15917;50.014;8.352;2022-08-18T14:05:17;8.95;;;6.50;;
28760;SDS011;15917;50.014;8.352;2022-08-18T14:07:45;8.52;;;6.55;;
28760;SDS011;15917;50.014;8.352;2022-08-18T14:10:12;7.72;;;5.90;;
28760;SDS011;15917;50.014;8.352;2022-08-18T14:12:39;7.10;;;6.30;;
28760;SDS011;15917;50.014;8.352;2022-08-18T14:15:07;9.45;;;5.75;;
28760;SDS011;15917;50.014;8.352;2022-08-18T14:17:35;12.60;;;6.35;;
28760;SDS011;15917;50.014;8.352;2022-08-18T14:20:01;7.35;;;5.93;;
28760;SDS011;15917;50.014;8.352;2022-08-18T14:22:48;18.83;;;7.88;;
28760;SDS011;15917;50.014;8.352;2022-08-18T14:25:34;11.32;;;7.00;;
28760;SDS011;15917;50.014;8.352;2022-08-18T14:28:18;11.27;;;7.28;;
28760;SDS011;15917;50.014;8.352;2022-08-18T14:30:44;8.80;;;6.60;;
28760;SDS011;15917;50.014;8.352;2022-08-18T14:33:11;7.95;;;6.47;;
28760;SDS011;15917;50.014;8.352;2022-08-18T14:35:39;8.77;;;6.18;;
28760;SDS011;15917;50.014;8.352;2022-08-18T14:38:05;7.33;;;6.03;;
28760;SDS011;15917;50.014;8.352;2022-08-18T14:40:32;9.80;;;7.82;;
28760;SDS011;15917;50.014;8.352;2022-08-18T14:42:59;12.47;;;6.77;;
28760;SDS011;15917;50.014;8.352;2022-08-18T14:45:26;9.63;;;7.43;;
28760;SDS011;15917;50.014;8.352;2022-08-18T14:47:52;10.82;;;7.65;;
28760;SDS011;15917;50.014;8.352;2022-08-18T14:50:18;12.15;;;7.55;;
28760;SDS011;15917;50.014;8.352;2022-08-18T14:52:45;10.05;;;7.25;;
28760;SDS011;15917;50.014;8.352;2022-08-18T14:55:12;9.68;;;8.10;;
28760;SDS011;15917;50.014;8.352;2022-08-18T14:57:39;17.85;;;8.02;;
28760;SDS011;15917;50.014;8.352;2022-08-18T15:00:06;10.93;;;7.63;;
28760;SDS011;15917;50.014;8.352;2022-08-18T15:02:36;12.48;;;8.18;;
28760;SDS011;15917;50.014;8.352;2022-08-18T15:05:03;11.52;;;9.05;;
28760;SDS011;15917;50.014;8.352;2022-08-18T15:07:31;11.13;;;8.48;;
28760;SDS011;15917;50.014;8.352;2022-08-18T15:09:57;11.20;;;8.35;;
28760;SDS011;15917;50.014;8.352;2022-08-18T15:12:23;10.13;;;7.75;;
28760;SDS011;15917;50.014;8.352;2022-08-18T15:14:49;10.77;;;8.35;;
28760;SDS011;15917;50.014;8.352;2022-08-18T15:17:15;11.88;;;7.90;;
28760;SDS011;15917;50.014;8.352;2022-08-18T15:19:41;13.02;;;7.70;;
28760;SDS011;15917;50.014;8.352;2022-08-18T15:22:09;11.82;;;7.95;;
28760;SDS011;15917;50.014;8.352;2022-08-18T15:24:53;13.27;;;8.73;;
28760;SDS011;15917;50.014;8.352;2022-08-18T15:27:38;14.95;;;8.18;;
28760;SDS011;15917;50.014;8.352;2022-08-18T15:30:08;14.75;;;8.48;;
28760;SDS011;15917;50.014;8.352;2022-08-18T15:32:38;21.90;;;11.02;;
28760;SDS011;15917;50.014;8.352;2022-08-18T15:35:04;17.88;;;11.73;;
28760;SDS011;15917;50.014;8.352;2022-08-18T15:37:32;20.38;;;12.13;;
28760;SDS011;15917;50.014;8.352;2022-08-18T15:40:01;22.30;;;12.18;;
28760;SDS011;15917;50.014;8.352;2022-08-18T15:42:44;17.98;;;12.35;;
28760;SDS011;15917;50.014;8.352;2022-08-18T15:45:22;17.35;;;11.88;;
28760;SDS011;15917;50.014;8.352;2022-08-18T15:47:51;15.95;;;10.90;;
28760;SDS011;15917;50.014;8.352;2022-08-18T15:50:20;18.42;;;11.20;;
28760;SDS011;15917;50.014;8.352;2022-08-18T15:52:47;14.23;;;10.55;;
28760;SDS011;15917;50.014;8.352;2022-08-18T15:55:18;17.70;;;10.65;;
28760;SDS011;15917;50.014;8.352;2022-08-18T15:57:46;16.40;;;11.40;;
28760;SDS011;15917;50.014;8.352;2022-08-18T16:00:13;17.70;;;11.00;;
28760;SDS011;15917;50.014;8.352;2022-08-18T16:02:42;17.05;;;11.77;;
28760;SDS011;15917;50.014;8.352;2022-08-18T16:05:16;14.73;;;10.18;;
28760;SDS011;15917;50.014;8.352;2022-08-18T16:07:42;15.45;;;11.00;;
28760;SDS011;15917;50.014;8.352;2022-08-18T16:10:09;15.20;;;10.50;;
28760;SDS011;15917;50.014;8.352;2022-08-18T16:12:35;15.23;;;10.15;;
28760;SDS011;15917;50.014;8.352;2022-08-18T16:15:01;15.85;;;10.07;;
28760;SDS011;15917;50.014;8.352;2022-08-18T16:17:29;14.65;;;10.32;;
28760;SDS011;15917;50.014;8.352;2022-08-18T16:19:56;14.93;;;9.77;;
28760;SDS011;15917;50.014;8.352;2022-08-18T16:22:21;16.10;;;10.48;;
28760;SDS011;15917;50.014;8.352;2022-08-18T16:24:47;15.32;;;10.25;;
28760;SDS011;15917;50.014;8.352;2022-08-18T16:27:14;14.43;;;9.55;;
28760;SDS011;15917;50.014;8.352;2022-08-18T16:29:40;14.07;;;9.50;;
28760;SDS011;15917;50.014;8.352;2022-08-18T16:32:06;16.13;;;10.05;;
28760;SDS011;15917;50.014;8.352;2022-08-18T16:34:32;15.05;;;10.63;;
28760;SDS011;15917;50.014;8.352;2022-08-18T16:36:59;13.45;;;9.88;;
28760;SDS011;15917;50.014;8.352;2022-08-18T16:39:25;16.98;;;10.95;;
28760;SDS011;15917;50.014;8.352;2022-08-18T16:41:50;17.98;;;10.43;;
28760;SDS011;15917;50.014;8.352;2022-08-18T16:44:16;15.73;;;11.07;;
28760;SDS011;15917;50.014;8.352;2022-08-18T16:46:43;18.93;;;11.00;;
28760;SDS011;15917;50.014;8.352;2022-08-18T16:49:09;15.48;;;10.35;;
28760;SDS011;15917;50.014;8.352;2022-08-18T16:51:35;17.55;;;10.60;;
28760;SDS011;15917;50.014;8.352;2022-08-18T16:54:01;19.83;;;10.55;;
28760;SDS011;15917;50.014;8.352;2022-08-18T16:56:29;15.02;;;10.25;;
28760;SDS011;15917;50.014;8.352;2022-08-18T17:01:41;16.70;;;10.65;;
28760;SDS011;15917;50.014;8.352;2022-08-18T17:04:26;15.15;;;10.45;;
28760;SDS011;15917;50.014;8.352;2022-08-18T17:06:54;15.90;;;10.90;;
28760;SDS011;15917;50.014;8.352;2022-08-18T17:09:20;15.03;;;11.30;;
28760;SDS011;15917;50.014;8.352;2022-08-18T17:11:48;16.10;;;11.00;;
28760;SDS011;15917;50.014;8.352;2022-08-18T17:14:15;16.90;;;11.20;;
28760;SDS011;15917;50.014;8.352;2022-08-18T17:16:40;16.45;;;11.10;;
28760;SDS011;15917;50.014;8.352;2022-08-18T17:19:06;16.50;;;11.45;;
28760;SDS011;15917;50.014;8.352;2022-08-18T17:21:33;17.63;;;11.73;;
28760;SDS011;15917;50.014;8.352;2022-08-18T17:24:00;22.38;;;10.85;;
28760;SDS011;15917;50.014;8.352;2022-08-18T17:26:31;18.30;;;11.27;;
28760;SDS011;15917;50.014;8.352;2022-08-18T17:31:53;19.70;;;11.95;;
28760;SDS011;15917;50.014;8.352;2022-08-18T17:34:38;19.67;;;11.60;;
28760;SDS011;15917;50.014;8.352;2022-08-18T17:37:08;18.30;;;11.77;;
28760;SDS011;15917;50.014;8.352;2022-08-18T17:39:39;21.73;;;12.23;;